St Cloud Regional Airport St Cloud US
ICAO: KSTC
IATA: STC
Category: Medium
Scheduled Services: Yes

Elevation: 1031 ft
TransAlt. 18000 ft.

Airport Communications:
ASOS:118.25
ATIS:119.375
CLNC DEL:118.25
MINNEAPOLIS CNTR:121.05
CTAF:123.5
GND:121.6
PRINCETON RDO:122.5
TWR:118.25

KSTC Zoom In..

If you have problems with the map follow the link
https://www.worldairports.se/pages/airport.php?
ICAO=KSTC

Runways:

(A) RW 05 length 3000 ft width 75 ft
---- / hdg 56

(B) RW 13 length 7000 ft width 150 ft
ILS 111.90 / hdg 133

(C) RW 23 length 3000 ft width 75 ft
---- / hdg 236

(D) RW 31 length 7000 ft width 150 ft
ILS 111.90 / hdg 313

Location; KSTC
Day. 21 / Time. 04.53 Zulu
* Altimeter: 30.52
* Temperature: -21° c. 5.8°f.
* Wind from: 160° Speed 05 kn.
Dewpoint: -22° c.
Visibility: 10 Statute Miles.
Clouds: Clear (automated report).

KSTC 210453Z 16005KT 10SM CLR M21/M22 A3052 RMK AO2 SLP376 I1000 T12111222


Wind From 160°
Speed 05 kn.

 
 
jpsmedia worldairports.se 2020   terms of use